sensor_id;sensor_type;location;lat;lon;timestamp;P1;durP1;ratioP1;P2;durP2;ratioP2
13493;SDS011;6819;50.886;4.332;2023-08-17T00:00:45;3.67;;;2.55;;
13493;SDS011;6819;50.886;4.332;2023-08-17T00:03:11;6.03;;;2.25;;
13493;SDS011;6819;50.886;4.332;2023-08-17T00:05:37;5.75;;;2.42;;
13493;SDS011;6819;50.886;4.332;2023-08-17T00:08:03;5.60;;;2.67;;
13493;SDS011;6819;50.886;4.332;2023-08-17T00:10:29;4.80;;;2.70;;
13493;SDS011;6819;50.886;4.332;2023-08-17T00:12:56;6.50;;;2.47;;
13493;SDS011;6819;50.886;4.332;2023-08-17T00:15:22;5.43;;;2.80;;
13493;SDS011;6819;50.886;4.332;2023-08-17T00:17:48;10.95;;;2.78;;
13493;SDS011;6819;50.886;4.332;2023-08-17T00:20:14;11.45;;;3.00;;
13493;SDS011;6819;50.886;4.332;2023-08-17T00:22:40;6.57;;;2.97;;
13493;SDS011;6819;50.886;4.332;2023-08-17T00:25:06;6.57;;;2.70;;
13493;SDS011;6819;50.886;4.332;2023-08-17T00:27:32;5.32;;;2.67;;
13493;SDS011;6819;50.886;4.332;2023-08-17T00:29:59;4.35;;;2.72;;
13493;SDS011;6819;50.886;4.332;2023-08-17T00:32:25;3.92;;;2.70;;
13493;SDS011;6819;50.886;4.332;2023-08-17T00:34:51;6.15;;;2.58;;
13493;SDS011;6819;50.886;4.332;2023-08-17T00:37:17;6.82;;;3.42;;
13493;SDS011;6819;50.886;4.332;2023-08-17T00:39:43;6.28;;;2.70;;
13493;SDS011;6819;50.886;4.332;2023-08-17T00:42:09;5.30;;;3.25;;
13493;SDS011;6819;50.886;4.332;2023-08-17T00:44:35;5.32;;;3.35;;
13493;SDS011;6819;50.886;4.332;2023-08-17T00:47:01;6.45;;;3.30;;
13493;SDS011;6819;50.886;4.332;2023-08-17T00:49:27;6.20;;;3.15;;
13493;SDS011;6819;50.886;4.332;2023-08-17T00:51:53;9.52;;;3.10;;
13493;SDS011;6819;50.886;4.332;2023-08-17T00:54:20;4.32;;;3.00;;
13493;SDS011;6819;50.886;4.332;2023-08-17T00:56:49;7.78;;;3.00;;
13493;SDS011;6819;50.886;4.332;2023-08-17T00:59:15;6.40;;;2.92;;
13493;SDS011;6819;50.886;4.332;2023-08-17T01:01:41;14.70;;;4.22;;
13493;SDS011;6819;50.886;4.332;2023-08-17T01:04:07;11.82;;;2.97;;
13493;SDS011;6819;50.886;4.332;2023-08-17T01:06:33;6.38;;;3.20;;
13493;SDS011;6819;50.886;4.332;2023-08-17T01:08:59;4.68;;;3.38;;
13493;SDS011;6819;50.886;4.332;2023-08-17T01:11:34;5.72;;;3.10;;
13493;SDS011;6819;50.886;4.332;2023-08-17T01:14:06;5.47;;;3.22;;
13493;SDS011;6819;50.886;4.332;2023-08-17T01:19:13;5.32;;;2.97;;
13493;SDS011;6819;50.886;4.332;2023-08-17T01:21:48;4.47;;;3.20;;
13493;SDS011;6819;50.886;4.332;2023-08-17T01:24:15;5.10;;;2.92;;
13493;SDS011;6819;50.886;4.332;2023-08-17T01:26:41;5.88;;;3.65;;
13493;SDS011;6819;50.886;4.332;2023-08-17T01:29:07;7.00;;;3.10;;
13493;SDS011;6819;50.886;4.332;2023-08-17T01:31:36;5.70;;;3.33;;
13493;SDS011;6819;50.886;4.332;2023-08-17T01:34:07;5.25;;;3.53;;
13493;SDS011;6819;50.886;4.332;2023-08-17T01:36:43;4.03;;;2.90;;
13493;SDS011;6819;50.886;4.332;2023-08-17T01:39:12;9.45;;;3.58;;
13493;SDS011;6819;50.886;4.332;2023-08-17T01:41:39;6.15;;;3.08;;
13493;SDS011;6819;50.886;4.332;2023-08-17T01:44:07;4.80;;;3.30;;
13493;SDS011;6819;50.886;4.332;2023-08-17T01:46:33;3.65;;;2.92;;
13493;SDS011;6819;50.886;4.332;2023-08-17T01:48:59;3.63;;;2.97;;
13493;SDS011;6819;50.886;4.332;2023-08-17T01:51:25;4.78;;;3.30;;
13493;SDS011;6819;50.886;4.332;2023-08-17T01:53:51;5.63;;;3.00;;
13493;SDS011;6819;50.886;4.332;2023-08-17T01:56:17;4.22;;;2.90;;
13493;SDS011;6819;50.886;4.332;2023-08-17T01:58:43;6.38;;;3.22;;
13493;SDS011;6819;50.886;4.332;2023-08-17T02:01:09;3.50;;;2.72;;
13493;SDS011;6819;50.886;4.332;2023-08-17T02:03:35;6.43;;;3.10;;
13493;SDS011;6819;50.886;4.332;2023-08-17T02:06:02;7.22;;;2.92;;
13493;SDS011;6819;50.886;4.332;2023-08-17T02:08:29;5.32;;;3.17;;
13493;SDS011;6819;50.886;4.332;2023-08-17T02:10:55;9.60;;;3.72;;
13493;SDS011;6819;50.886;4.332;2023-08-17T02:13:21;6.70;;;3.28;;
13493;SDS011;6819;50.886;4.332;2023-08-17T02:15:47;4.20;;;2.83;;
13493;SDS011;6819;50.886;4.332;2023-08-17T02:18:13;6.35;;;3.45;;
13493;SDS011;6819;50.886;4.332;2023-08-17T02:20:39;4.85;;;3.00;;
13493;SDS011;6819;50.886;4.332;2023-08-17T02:23:05;6.53;;;2.95;;
13493;SDS011;6819;50.886;4.332;2023-08-17T02:25:31;4.63;;;3.22;;
13493;SDS011;6819;50.886;4.332;2023-08-17T02:28:01;10.27;;;3.13;;
13493;SDS011;6819;50.886;4.332;2023-08-17T02:30:28;5.15;;;3.28;;
13493;SDS011;6819;50.886;4.332;2023-08-17T02:32:54;10.50;;;3.40;;
13493;SDS011;6819;50.886;4.332;2023-08-17T02:35:20;5.13;;;3.20;;
13493;SDS011;6819;50.886;4.332;2023-08-17T02:37:46;7.15;;;3.08;;
13493;SDS011;6819;50.886;4.332;2023-08-17T02:40:12;10.95;;;3.40;;
13493;SDS011;6819;50.886;4.332;2023-08-17T02:42:38;6.20;;;3.10;;
13493;SDS011;6819;50.886;4.332;2023-08-17T02:45:05;5.78;;;3.50;;
13493;SDS011;6819;50.886;4.332;2023-08-17T02:47:32;4.88;;;3.25;;
13493;SDS011;6819;50.886;4.332;2023-08-17T02:49:58;6.40;;;3.15;;
13493;SDS011;6819;50.886;4.332;2023-08-17T02:52:24;7.70;;;3.42;;
13493;SDS011;6819;50.886;4.332;2023-08-17T02:54:50;4.40;;;2.90;;
13493;SDS011;6819;50.886;4.332;2023-08-17T02:57:16;6.55;;;3.28;;
13493;SDS011;6819;50.886;4.332;2023-08-17T02:59:43;9.63;;;3.30;;
13493;SDS011;6819;50.886;4.332;2023-08-17T03:02:09;6.13;;;2.92;;
13493;SDS011;6819;50.886;4.332;2023-08-17T03:04:35;6.50;;;3.22;;
13493;SDS011;6819;50.886;4.332;2023-08-17T03:07:01;13.55;;;3.78;;
13493;SDS011;6819;50.886;4.332;2023-08-17T03:09:27;5.32;;;2.70;;
13493;SDS011;6819;50.886;4.332;2023-08-17T03:11:53;6.60;;;3.50;;
13493;SDS011;6819;50.886;4.332;2023-08-17T03:14:19;12.30;;;2.95;;
13493;SDS011;6819;50.886;4.332;2023-08-17T03:16:45;6.13;;;3.13;;
13493;SDS011;6819;50.886;4.332;2023-08-17T03:19:11;11.52;;;2.65;;
13493;SDS011;6819;50.886;4.332;2023-08-17T03:21:37;3.80;;;3.03;;
13493;SDS011;6819;50.886;4.332;2023-08-17T03:24:04;6.50;;;3.00;;
13493;SDS011;6819;50.886;4.332;2023-08-17T03:26:30;8.05;;;3.72;;
13493;SDS011;6819;50.886;4.332;2023-08-17T03:28:56;3.78;;;3.13;;
13493;SDS011;6819;50.886;4.332;2023-08-17T03:31:22;4.72;;;3.20;;
13493;SDS011;6819;50.886;4.332;2023-08-17T03:33:48;8.05;;;3.40;;
13493;SDS011;6819;50.886;4.332;2023-08-17T03:36:15;6.20;;;3.30;;
13493;SDS011;6819;50.886;4.332;2023-08-17T03:38:41;5.75;;;2.90;;
13493;SDS011;6819;50.886;4.332;2023-08-17T03:41:07;8.40;;;3.25;;
13493;SDS011;6819;50.886;4.332;2023-08-17T03:43:33;6.03;;;3.00;;
13493;SDS011;6819;50.886;4.332;2023-08-17T03:45:59;10.02;;;3.63;;
13493;SDS011;6819;50.886;4.332;2023-08-17T03:48:25;8.82;;;3.10;;
13493;SDS011;6819;50.886;4.332;2023-08-17T03:50:51;5.57;;;3.28;;
13493;SDS011;6819;50.886;4.332;2023-08-17T03:53:18;7.63;;;3.55;;
13493;SDS011;6819;50.886;4.332;2023-08-17T03:55:47;5.55;;;3.13;;
13493;SDS011;6819;50.886;4.332;2023-08-17T03:58:13;5.50;;;3.10;;
13493;SDS011;6819;50.886;4.332;2023-08-17T04:00:40;6.60;;;3.60;;
13493;SDS011;6819;50.886;4.332;2023-08-17T04:03:06;6.45;;;3.55;;
13493;SDS011;6819;50.886;4.332;2023-08-17T04:05:32;5.30;;;3.58;;
13493;SDS011;6819;50.886;4.332;2023-08-17T04:07:58;5.50;;;3.17;;
13493;SDS011;6819;50.886;4.332;2023-08-17T04:10:27;6.10;;;3.20;;
13493;SDS011;6819;50.886;4.332;2023-08-17T04:12:53;7.95;;;3.47;;
13493;SDS011;6819;50.886;4.332;2023-08-17T04:15:19;4.90;;;3.50;;
13493;SDS011;6819;50.886;4.332;2023-08-17T04:17:45;6.90;;;3.20;;
13493;SDS011;6819;50.886;4.332;2023-08-17T04:20:11;10.30;;;3.42;;
13493;SDS011;6819;50.886;4.332;2023-08-17T04:22:37;5.25;;;3.20;;
13493;SDS011;6819;50.886;4.332;2023-08-17T04:25:03;5.50;;;3.30;;
13493;SDS011;6819;50.886;4.332;2023-08-17T04:27:29;7.25;;;3.75;;
13493;SDS011;6819;50.886;4.332;2023-08-17T04:29:55;6.07;;;3.20;;
13493;SDS011;6819;50.886;4.332;2023-08-17T04:32:21;7.60;;;3.30;;
13493;SDS011;6819;50.886;4.332;2023-08-17T04:34:47;7.10;;;3.40;;
13493;SDS011;6819;50.886;4.332;2023-08-17T04:37:13;7.22;;;3.40;;
13493;SDS011;6819;50.886;4.332;2023-08-17T04:39:39;5.70;;;3.53;;
13493;SDS011;6819;50.886;4.332;2023-08-17T04:42:06;8.32;;;4.03;;
13493;SDS011;6819;50.886;4.332;2023-08-17T04:44:32;9.85;;;3.60;;
13493;SDS011;6819;50.886;4.332;2023-08-17T04:46:58;6.18;;;3.45;;
13493;SDS011;6819;50.886;4.332;2023-08-17T04:49:24;6.57;;;3.45;;
13493;SDS011;6819;50.886;4.332;2023-08-17T04:51:51;5.60;;;3.30;;
13493;SDS011;6819;50.886;4.332;2023-08-17T04:54:17;11.00;;;3.53;;
13493;SDS011;6819;50.886;4.332;2023-08-17T04:56:43;7.45;;;3.47;;
13493;SDS011;6819;50.886;4.332;2023-08-17T04:59:09;6.43;;;3.50;;
13493;SDS011;6819;50.886;4.332;2023-08-17T05:01:35;8.20;;;3.40;;
13493;SDS011;6819;50.886;4.332;2023-08-17T05:04:02;9.65;;;3.40;;
13493;SDS011;6819;50.886;4.332;2023-08-17T05:06:28;7.00;;;3.47;;
13493;SDS011;6819;50.886;4.332;2023-08-17T05:08:54;5.28;;;3.25;;
13493;SDS011;6819;50.886;4.332;2023-08-17T05:11:21;6.68;;;3.45;;
13493;SDS011;6819;50.886;4.332;2023-08-17T05:13:47;7.40;;;3.22;;
13493;SDS011;6819;50.886;4.332;2023-08-17T05:16:13;6.18;;;3.75;;
13493;SDS011;6819;50.886;4.332;2023-08-17T05:18:39;7.05;;;3.33;;
13493;SDS011;6819;50.886;4.332;2023-08-17T05:21:05;7.85;;;3.15;;
13493;SDS011;6819;50.886;4.332;2023-08-17T05:23:31;5.30;;;3.00;;
13493;SDS011;6819;50.886;4.332;2023-08-17T05:25:57;5.80;;;2.90;;
13493;SDS011;6819;50.886;4.332;2023-08-17T05:28:23;7.35;;;2.78;;
13493;SDS011;6819;50.886;4.332;2023-08-17T05:30:49;8.55;;;2.75;;
13493;SDS011;6819;50.886;4.332;2023-08-17T05:33:15;9.93;;;3.70;;
13493;SDS011;6819;50.886;4.332;2023-08-17T05:35:41;8.20;;;3.38;;
13493;SDS011;6819;50.886;4.332;2023-08-17T05:38:08;8.68;;;3.20;;
13493;SDS011;6819;50.886;4.332;2023-08-17T05:40:34;6.38;;;2.78;;
13493;SDS011;6819;50.886;4.332;2023-08-17T05:43:01;10.75;;;3.00;;
13493;SDS011;6819;50.886;4.332;2023-08-17T05:45:27;13.65;;;3.15;;
13493;SDS011;6819;50.886;4.332;2023-08-17T05:47:53;11.32;;;3.78;;
13493;SDS011;6819;50.886;4.332;2023-08-17T05:50:19;7.55;;;2.75;;
13493;SDS011;6819;50.886;4.332;2023-08-17T05:52:45;6.95;;;3.00;;
13493;SDS011;6819;50.886;4.332;2023-08-17T05:55:11;5.68;;;2.95;;
13493;SDS011;6819;50.886;4.332;2023-08-17T05:57:37;4.78;;;2.90;;
13493;SDS011;6819;50.886;4.332;2023-08-17T06:00:03;3.55;;;2.75;;
13493;SDS011;6819;50.886;4.332;2023-08-17T06:02:29;5.65;;;3.40;;
13493;SDS011;6819;50.886;4.332;2023-08-17T06:04:56;6.15;;;2.85;;
13493;SDS011;6819;50.886;4.332;2023-08-17T06:07:22;9.60;;;3.33;;
13493;SDS011;6819;50.886;4.332;2023-08-17T06:09:48;5.20;;;2.92;;
13493;SDS011;6819;50.886;4.332;2023-08-17T06:12:14;8.25;;;3.10;;
13493;SDS011;6819;50.886;4.332;2023-08-17T06:14:40;4.38;;;2.55;;
13493;SDS011;6819;50.886;4.332;2023-08-17T06:17:07;9.35;;;3.13;;
13493;SDS011;6819;50.886;4.332;2023-08-17T06:19:33;5.40;;;2.97;;
13493;SDS011;6819;50.886;4.332;2023-08-17T06:21:59;6.88;;;2.90;;
13493;SDS011;6819;50.886;4.332;2023-08-17T06:24:25;4.90;;;2.95;;
13493;SDS011;6819;50.886;4.332;2023-08-17T06:26:51;6.38;;;3.17;;
13493;SDS011;6819;50.886;4.332;2023-08-17T06:29:17;4.55;;;2.75;;
13493;SDS011;6819;50.886;4.332;2023-08-17T06:31:43;8.05;;;2.88;;
13493;SDS011;6819;50.886;4.332;2023-08-17T06:34:09;6.63;;;3.10;;
13493;SDS011;6819;50.886;4.332;2023-08-17T06:36:37;9.55;;;3.25;;
13493;SDS011;6819;50.886;4.332;2023-08-17T06:39:04;5.18;;;2.78;;
13493;SDS011;6819;50.886;4.332;2023-08-17T06:41:30;6.45;;;2.70;;
13493;SDS011;6819;50.886;4.332;2023-08-17T06:43:56;7.45;;;3.30;;
13493;SDS011;6819;50.886;4.332;2023-08-17T06:46:22;8.65;;;2.70;;
13493;SDS011;6819;50.886;4.332;2023-08-17T06:48:49;10.07;;;2.88;;
13493;SDS011;6819;50.886;4.332;2023-08-17T06:51:15;8.63;;;2.78;;
13493;SDS011;6819;50.886;4.332;2023-08-17T06:53:41;5.22;;;2.92;;
13493;SDS011;6819;50.886;4.332;2023-08-17T06:56:08;5.70;;;2.78;;
13493;SDS011;6819;50.886;4.332;2023-08-17T06:58:35;6.63;;;3.15;;
13493;SDS011;6819;50.886;4.332;2023-08-17T07:01:01;11.32;;;3.63;;
13493;SDS011;6819;50.886;4.332;2023-08-17T07:03:27;13.00;;;3.35;;
13493;SDS011;6819;50.886;4.332;2023-08-17T07:05:53;10.52;;;4.05;;
13493;SDS011;6819;50.886;4.332;2023-08-17T07:08:19;15.35;;;3.53;;
13493;SDS011;6819;50.886;4.332;2023-08-17T07:10:45;10.40;;;3.13;;
13493;SDS011;6819;50.886;4.332;2023-08-17T07:13:11;11.57;;;3.05;;
13493;SDS011;6819;50.886;4.332;2023-08-17T07:15:37;7.43;;;2.72;;
13493;SDS011;6819;50.886;4.332;2023-08-17T07:18:03;6.10;;;3.25;;
13493;SDS011;6819;50.886;4.332;2023-08-17T07:20:29;6.30;;;3.30;;
13493;SDS011;6819;50.886;4.332;2023-08-17T07:22:55;10.70;;;2.97;;
13493;SDS011;6819;50.886;4.332;2023-08-17T07:25:21;13.52;;;3.30;;
13493;SDS011;6819;50.886;4.332;2023-08-17T07:27:47;4.85;;;3.00;;
13493;SDS011;6819;50.886;4.332;2023-08-17T07:30:13;8.32;;;3.40;;
13493;SDS011;6819;50.886;4.332;2023-08-17T07:32:39;11.23;;;3.33;;
13493;SDS011;6819;50.886;4.332;2023-08-17T07:35:06;9.10;;;3.38;;
13493;SDS011;6819;50.886;4.332;2023-08-17T07:37:32;6.88;;;3.40;;
13493;SDS011;6819;50.886;4.332;2023-08-17T07:39:58;15.52;;;3.95;;
13493;SDS011;6819;50.886;4.332;2023-08-17T07:42:24;9.60;;;3.40;;
13493;SDS011;6819;50.886;4.332;2023-08-17T07:44:51;7.07;;;3.45;;
13493;SDS011;6819;50.886;4.332;2023-08-17T07:47:17;7.97;;;4.03;;
13493;SDS011;6819;50.886;4.332;2023-08-17T07:49:42;8.05;;;3.80;;
13493;SDS011;6819;50.886;4.332;2023-08-17T07:52:08;9.20;;;3.80;;
13493;SDS011;6819;50.886;4.332;2023-08-17T07:54:35;6.75;;;4.18;;
13493;SDS011;6819;50.886;4.332;2023-08-17T07:57:01;9.15;;;4.07;;
13493;SDS011;6819;50.886;4.332;2023-08-17T07:59:28;8.45;;;4.60;;
13493;SDS011;6819;50.886;4.332;2023-08-17T08:01:54;8.32;;;3.53;;
13493;SDS011;6819;50.886;4.332;2023-08-17T08:04:20;8.27;;;4.43;;
13493;SDS011;6819;50.886;4.332;2023-08-17T08:06:46;6.68;;;3.72;;
13493;SDS011;6819;50.886;4.332;2023-08-17T08:09:12;12.70;;;4.45;;
13493;SDS011;6819;50.886;4.332;2023-08-17T08:11:39;8.43;;;4.28;;
13493;SDS011;6819;50.886;4.332;2023-08-17T08:14:05;9.38;;;3.80;;
13493;SDS011;6819;50.886;4.332;2023-08-17T08:16:31;11.05;;;3.47;;
13493;SDS011;6819;50.886;4.332;2023-08-17T08:18:57;7.63;;;3.92;;
13493;SDS011;6819;50.886;4.332;2023-08-17T08:21:23;9.10;;;3.67;;
13493;SDS011;6819;50.886;4.332;2023-08-17T08:23:49;10.60;;;4.78;;
13493;SDS011;6819;50.886;4.332;2023-08-17T08:26:15;7.43;;;4.03;;
13493;SDS011;6819;50.886;4.332;2023-08-17T08:28:41;13.20;;;4.40;;
13493;SDS011;6819;50.886;4.332;2023-08-17T08:31:09;9.27;;;4.20;;
13493;SDS011;6819;50.886;4.332;2023-08-17T08:33:35;8.98;;;4.28;;
13493;SDS011;6819;50.886;4.332;2023-08-17T08:36:01;7.93;;;4.35;;
13493;SDS011;6819;50.886;4.332;2023-08-17T08:38:27;14.63;;;4.43;;
13493;SDS011;6819;50.886;4.332;2023-08-17T08:40:54;10.35;;;5.03;;
13493;SDS011;6819;50.886;4.332;2023-08-17T08:43:20;9.48;;;3.80;;
13493;SDS011;6819;50.886;4.332;2023-08-17T08:45:46;10.30;;;4.10;;
13493;SDS011;6819;50.886;4.332;2023-08-17T08:48:14;8.80;;;3.65;;
13493;SDS011;6819;50.886;4.332;2023-08-17T08:50:41;9.15;;;3.92;;
13493;SDS011;6819;50.886;4.332;2023-08-17T08:53:12;8.98;;;3.72;;
13493;SDS011;6819;50.886;4.332;2023-08-17T08:55:40;8.98;;;4.32;;
13493;SDS011;6819;50.886;4.332;2023-08-17T08:58:08;10.20;;;2.90;;
13493;SDS011;6819;50.886;4.332;2023-08-17T09:00:34;9.98;;;3.60;;
13493;SDS011;6819;50.886;4.332;2023-08-17T09:03:01;6.03;;;3.30;;
13493;SDS011;6819;50.886;4.332;2023-08-17T09:05:33;9.30;;;4.13;;
13493;SDS011;6819;50.886;4.332;2023-08-17T09:08:00;9.75;;;4.05;;
13493;SDS011;6819;50.886;4.332;2023-08-17T09:10:26;5.78;;;3.65;;
13493;SDS011;6819;50.886;4.332;2023-08-17T09:12:53;9.27;;;3.85;;
13493;SDS011;6819;50.886;4.332;2023-08-17T09:15:19;7.15;;;3.65;;
13493;SDS011;6819;50.886;4.332;2023-08-17T09:17:45;15.50;;;4.03;;
13493;SDS011;6819;50.886;4.332;2023-08-17T09:20:17;9.43;;;3.70;;
13493;SDS011;6819;50.886;4.332;2023-08-17T09:22:59;9.57;;;3.67;;
13493;SDS011;6819;50.886;4.332;2023-08-17T09:25:28;8.43;;;3.92;;
13493;SDS011;6819;50.886;4.332;2023-08-17T09:27:54;12.35;;;4.25;;
13493;SDS011;6819;50.886;4.332;2023-08-17T09:30:22;6.90;;;3.63;;
13493;SDS011;6819;50.886;4.332;2023-08-17T09:32:48;10.80;;;4.35;;
13493;SDS011;6819;50.886;4.332;2023-08-17T09:35:14;9.27;;;4.10;;
13493;SDS011;6819;50.886;4.332;2023-08-17T09:37:40;8.65;;;4.82;;
13493;SDS011;6819;50.886;4.332;2023-08-17T09:40:07;7.28;;;4.47;;
13493;SDS011;6819;50.886;4.332;2023-08-17T09:42:36;10.43;;;4.20;;
13493;SDS011;6819;50.886;4.332;2023-08-17T09:45:04;9.82;;;4.22;;
13493;SDS011;6819;50.886;4.332;2023-08-17T09:47:30;9.63;;;4.32;;
13493;SDS011;6819;50.886;4.332;2023-08-17T09:49:56;10.50;;;4.00;;
13493;SDS011;6819;50.886;4.332;2023-08-17T09:52:22;9.23;;;4.40;;
13493;SDS011;6819;50.886;4.332;2023-08-17T09:54:48;15.05;;;4.72;;
13493;SDS011;6819;50.886;4.332;2023-08-17T09:57:16;8.98;;;4.82;;
13493;SDS011;6819;50.886;4.332;2023-08-17T09:59:42;8.43;;;4.85;;
13493;SDS011;6819;50.886;4.332;2023-08-17T10:02:17;10.75;;;5.18;;
13493;SDS011;6819;50.886;4.332;2023-08-17T10:04:45;13.65;;;4.80;;
13493;SDS011;6819;50.886;4.332;2023-08-17T10:07:14;10.30;;;5.60;;
13493;SDS011;6819;50.886;4.332;2023-08-17T10:09:42;8.55;;;5.15;;
13493;SDS011;6819;50.886;4.332;2023-08-17T10:12:10;8.75;;;4.63;;
13493;SDS011;6819;50.886;4.332;2023-08-17T10:14:36;9.23;;;4.45;;
13493;SDS011;6819;50.886;4.332;2023-08-17T10:17:07;8.05;;;5.32;;
13493;SDS011;6819;50.886;4.332;2023-08-17T10:19:46;8.47;;;4.40;;
13493;SDS011;6819;50.886;4.332;2023-08-17T10:22:20;11.52;;;5.60;;
13493;SDS011;6819;50.886;4.332;2023-08-17T10:24:49;8.18;;;4.28;;
13493;SDS011;6819;50.886;4.332;2023-08-17T10:27:15;8.30;;;4.93;;
13493;SDS011;6819;50.886;4.332;2023-08-17T10:29:42;7.35;;;4.50;;
13493;SDS011;6819;50.886;4.332;2023-08-17T10:32:09;8.85;;;4.55;;
13493;SDS011;6819;50.886;4.332;2023-08-17T10:34:36;14.20;;;4.65;;
13493;SDS011;6819;50.886;4.332;2023-08-17T10:37:03;12.27;;;5.70;;
13493;SDS011;6819;50.886;4.332;2023-08-17T10:39:30;10.80;;;5.03;;
13493;SDS011;6819;50.886;4.332;2023-08-17T10:41:56;9.05;;;5.60;;
13493;SDS011;6819;50.886;4.332;2023-08-17T10:44:44;12.07;;;5.03;;
13493;SDS011;6819;50.886;4.332;2023-08-17T10:49:45;6.18;;;4.45;;
13493;SDS011;6819;50.886;4.332;2023-08-17T10:52:13;6.30;;;4.43;;
13493;SDS011;6819;50.886;4.332;2023-08-17T10:54:39;9.20;;;5.32;;
13493;SDS011;6819;50.886;4.332;2023-08-17T10:57:24;8.45;;;4.93;;
13493;SDS011;6819;50.886;4.332;2023-08-17T11:02:44;10.80;;;4.80;;
13493;SDS011;6819;50.886;4.332;2023-08-17T11:05:10;8.05;;;4.50;;
13493;SDS011;6819;50.886;4.332;2023-08-17T11:07:43;9.23;;;4.63;;
13493;SDS011;6819;50.886;4.332;2023-08-17T11:12:40;7.82;;;4.32;;
13493;SDS011;6819;50.886;4.332;2023-08-17T11:15:06;10.93;;;4.43;;
13493;SDS011;6819;50.886;4.332;2023-08-17T11:17:33;12.95;;;4.50;;
13493;SDS011;6819;50.886;4.332;2023-08-17T11:19:59;8.98;;;5.25;;
13493;SDS011;6819;50.886;4.332;2023-08-17T11:22:25;8.95;;;4.90;;
13493;SDS011;6819;50.886;4.332;2023-08-17T11:24:51;6.35;;;4.75;;
13493;SDS011;6819;50.886;4.332;2023-08-17T11:27:17;10.00;;;5.05;;
13493;SDS011;6819;50.886;4.332;2023-08-17T11:29:44;13.82;;;4.85;;
13493;SDS011;6819;50.886;4.332;2023-08-17T11:32:10;9.73;;;5.50;;
13493;SDS011;6819;50.886;4.332;2023-08-17T11:34:37;6.75;;;4.80;;
13493;SDS011;6819;50.886;4.332;2023-08-17T11:37:04;10.20;;;5.07;;
13493;SDS011;6819;50.886;4.332;2023-08-17T11:39:35;9.02;;;4.78;;
13493;SDS011;6819;50.886;4.332;2023-08-17T11:42:01;8.50;;;5.05;;
13493;SDS011;6819;50.886;4.332;2023-08-17T11:44:28;13.80;;;5.05;;
13493;SDS011;6819;50.886;4.332;2023-08-17T11:46:54;11.40;;;5.68;;
13493;SDS011;6819;50.886;4.332;2023-08-17T11:49:20;10.75;;;5.35;;
13493;SDS011;6819;50.886;4.332;2023-08-17T11:51:49;12.07;;;6.72;;
13493;SDS011;6819;50.886;4.332;2023-08-17T11:54:15;8.68;;;5.35;;
13493;SDS011;6819;50.886;4.332;2023-08-17T11:56:41;9.82;;;5.15;;
13493;SDS011;6819;50.886;4.332;2023-08-17T11:59:10;9.88;;;5.20;;
13493;SDS011;6819;50.886;4.332;2023-08-17T12:01:39;10.90;;;5.28;;
13493;SDS011;6819;50.886;4.332;2023-08-17T12:04:05;8.77;;;5.80;;
13493;SDS011;6819;50.886;4.332;2023-08-17T12:06:31;10.25;;;5.88;;
13493;SDS011;6819;50.886;4.332;2023-08-17T12:08:57;11.15;;;5.78;;
13493;SDS011;6819;50.886;4.332;2023-08-17T12:11:24;12.25;;;5.78;;
13493;SDS011;6819;50.886;4.332;2023-08-17T12:13:51;9.65;;;5.57;;
13493;SDS011;6819;50.886;4.332;2023-08-17T12:16:17;10.18;;;5.57;;
13493;SDS011;6819;50.886;4.332;2023-08-17T12:18:50;13.43;;;6.57;;
13493;SDS011;6819;50.886;4.332;2023-08-17T12:21:16;17.63;;;6.47;;
13493;SDS011;6819;50.886;4.332;2023-08-17T12:23:42;10.70;;;5.80;;
13493;SDS011;6819;50.886;4.332;2023-08-17T12:26:08;12.50;;;6.22;;
13493;SDS011;6819;50.886;4.332;2023-08-17T12:28:34;11.15;;;6.07;;
13493;SDS011;6819;50.886;4.332;2023-08-17T12:31:01;10.27;;;6.50;;
13493;SDS011;6819;50.886;4.332;2023-08-17T12:33:27;13.52;;;7.07;;
13493;SDS011;6819;50.886;4.332;2023-08-17T12:35:53;14.90;;;7.00;;
13493;SDS011;6819;50.886;4.332;2023-08-17T12:38:19;13.45;;;6.75;;
13493;SDS011;6819;50.886;4.332;2023-08-17T12:40:45;10.05;;;6.85;;
13493;SDS011;6819;50.886;4.332;2023-08-17T12:43:11;14.10;;;6.60;;
13493;SDS011;6819;50.886;4.332;2023-08-17T12:45:37;16.92;;;7.32;;
13493;SDS011;6819;50.886;4.332;2023-08-17T12:48:03;11.55;;;7.25;;
13493;SDS011;6819;50.886;4.332;2023-08-17T12:50:29;15.13;;;7.07;;
13493;SDS011;6819;50.886;4.332;2023-08-17T12:52:55;14.73;;;7.82;;
13493;SDS011;6819;50.886;4.332;2023-08-17T12:55:22;16.33;;;7.00;;
13493;SDS011;6819;50.886;4.332;2023-08-17T12:57:48;12.85;;;7.70;;
13493;SDS011;6819;50.886;4.332;2023-08-17T13:00:14;12.85;;;7.25;;
13493;SDS011;6819;50.886;4.332;2023-08-17T13:02:40;12.45;;;7.20;;
13493;SDS011;6819;50.886;4.332;2023-08-17T13:05:06;11.35;;;7.03;;
13493;SDS011;6819;50.886;4.332;2023-08-17T13:07:32;13.82;;;7.50;;
13493;SDS011;6819;50.886;4.332;2023-08-17T13:09:58;13.32;;;7.53;;
13493;SDS011;6819;50.886;4.332;2023-08-17T13:12:24;13.23;;;7.53;;
13493;SDS011;6819;50.886;4.332;2023-08-17T13:14:50;16.25;;;7.97;;
13493;SDS011;6819;50.886;4.332;2023-08-17T13:17:17;21.23;;;8.98;;
13493;SDS011;6819;50.886;4.332;2023-08-17T13:19:43;13.00;;;8.75;;
13493;SDS011;6819;50.886;4.332;2023-08-17T13:22:09;20.20;;;7.88;;
13493;SDS011;6819;50.886;4.332;2023-08-17T13:24:35;12.90;;;8.23;;
13493;SDS011;6819;50.886;4.332;2023-08-17T13:27:01;18.73;;;8.85;;
13493;SDS011;6819;50.886;4.332;2023-08-17T13:29:27;16.33;;;8.80;;
13493;SDS011;6819;50.886;4.332;2023-08-17T13:31:53;15.70;;;8.43;;
13493;SDS011;6819;50.886;4.332;2023-08-17T13:34:19;15.60;;;8.55;;
13493;SDS011;6819;50.886;4.332;2023-08-17T13:36:45;14.93;;;8.93;;
13493;SDS011;6819;50.886;4.332;2023-08-17T13:39:11;14.68;;;9.68;;
13493;SDS011;6819;50.886;4.332;2023-08-17T13:41:37;12.95;;;8.07;;
13493;SDS011;6819;50.886;4.332;2023-08-17T13:44:05;12.98;;;8.25;;
13493;SDS011;6819;50.886;4.332;2023-08-17T13:46:31;17.98;;;9.85;;
13493;SDS011;6819;50.886;4.332;2023-08-17T13:48:57;22.30;;;9.25;;
13493;SDS011;6819;50.886;4.332;2023-08-17T13:51:24;19.90;;;8.82;;
13493;SDS011;6819;50.886;4.332;2023-08-17T13:53:50;12.63;;;8.38;;
13493;SDS011;6819;50.886;4.332;2023-08-17T13:56:16;19.42;;;8.13;;
13493;SDS011;6819;50.886;4.332;2023-08-17T13:58:42;18.83;;;9.60;;
13493;SDS011;6819;50.886;4.332;2023-08-17T14:01:08;17.77;;;9.45;;
13493;SDS011;6819;50.886;4.332;2023-08-17T14:03:36;17.35;;;9.55;;
13493;SDS011;6819;50.886;4.332;2023-08-17T14:06:02;18.92;;;9.32;;
13493;SDS011;6819;50.886;4.332;2023-08-17T14:08:28;16.05;;;8.68;;
13493;SDS011;6819;50.886;4.332;2023-08-17T14:10:54;14.15;;;8.63;;
13493;SDS011;6819;50.886;4.332;2023-08-17T14:13:20;21.98;;;9.85;;
13493;SDS011;6819;50.886;4.332;2023-08-17T14:15:46;14.50;;;9.82;;
13493;SDS011;6819;50.886;4.332;2023-08-17T14:18:12;15.85;;;9.57;;
13493;SDS011;6819;50.886;4.332;2023-08-17T14:20:38;18.25;;;10.20;;
13493;SDS011;6819;50.886;4.332;2023-08-17T14:23:04;15.52;;;8.98;;
13493;SDS011;6819;50.886;4.332;2023-08-17T14:25:30;15.60;;;8.60;;
13493;SDS011;6819;50.886;4.332;2023-08-17T14:27:57;16.58;;;8.38;;
13493;SDS011;6819;50.886;4.332;2023-08-17T14:30:24;15.52;;;8.82;;
13493;SDS011;6819;50.886;4.332;2023-08-17T14:32:51;12.65;;;8.00;;
13493;SDS011;6819;50.886;4.332;2023-08-17T14:35:17;12.63;;;7.85;;
13493;SDS011;6819;50.886;4.332;2023-08-17T14:37:43;16.70;;;8.85;;
13493;SDS011;6819;50.886;4.332;2023-08-17T14:40:09;12.75;;;8.27;;
13493;SDS011;6819;50.886;4.332;2023-08-17T14:42:36;9.52;;;7.20;;
13493;SDS011;6819;50.886;4.332;2023-08-17T14:45:03;11.82;;;7.97;;
13493;SDS011;6819;50.886;4.332;2023-08-17T14:47:29;14.43;;;8.50;;
13493;SDS011;6819;50.886;4.332;2023-08-17T14:49:55;13.93;;;7.63;;
13493;SDS011;6819;50.886;4.332;2023-08-17T14:52:21;15.93;;;8.27;;
13493;SDS011;6819;50.886;4.332;2023-08-17T14:54:47;11.15;;;7.63;;
13493;SDS011;6819;50.886;4.332;2023-08-17T14:57:13;16.30;;;7.55;;
13493;SDS011;6819;50.886;4.332;2023-08-17T14:59:39;11.95;;;7.47;;
13493;SDS011;6819;50.886;4.332;2023-08-17T15:02:05;15.05;;;8.75;;